Terminal Aerodrome Forecast
Issued by NWS

Home | Current Version | Previous Version | Text Only | Print | Product List | Glossary On
Versions: 1 2 3 4 5 6 7 8 9 10 11 12 13 14 15 16 17 18 19 20 21 22 23 24
000
FTUS44 KCRP 012100 AAA
TAFALI
TAF AMD
KALI 012100Z 0121/0218 14015G22KT P6SM VCSH SCT026
      TEMPO 0121/0123 -SHRA BKN026
     FM020200 14011KT P6SM BKN015
     FM020700 16009KT P6SM OVC008
     FM021400 15015G22KT P6SM OVC015=

USA.gov is the U.S. government's official web portal to all federal, state and local government web resources and services.